Portada
METAR-TAF:

METAR-TAF

Aeroports :

Butterworth, Malàisia

latitud: 05-27-58N, longitud: 100-23-28E, altitud: 2 m

Observació

L'informe es va fer fa 1 hora i 13 minuts, a les 12:00 UTC
Vent 7 kt del Sud/Sud-Est, variant entre Sud-Est i Sud/Sud-Oest
Temperatura 31°C
Humitat 66%
Pressió 1008 hPa
Visibilitat: 8000 m
Escasses núvols a una alçada de 2000 ft

METAR: WMKB 261200Z 16007KT 140V210 8000 FEW020 31/24 Q1008 NOSIG

Hora: 21:13 (13:13 UTC)

Pronòstic

L'informe es va fer fa 2 hores i 13 minuts, a les 11:00 UTC
Pronòstic vàlid del 26 a les 12 UTC al 27 a les 12 UTC
Vent 5 kt del Nord-Est
Visibilitat: 8000 m
Escasses núvols a una alçada de 2000 ft
Evolucionant progressivament
l' 27 a les 06 UTC al 27 a les 08 UTC
Vent 10 kt del Oest/Nord-Oest
Visibilitat 10 km o més

TAF: WMKB 261100Z 2612/2712 05005KT 8000 FEW020 BECMG 2706/2708 29010KT 9999

Observacions i pronòstics meteorològics de més de 4000 aeroports (METAR i TAF).

Les estacions disponibles són els punts grocs i vermells al mapa.

Posi el ratolí al punt desitjat per veure el nom de l'estació.

Feu clic per veure les observacions i els pronòstics meteorològics.

Per canviar el mapa: feu clic els botons verds amb una creu de color negre per apropar; al botó verd amb un guió per allunyar la imatge; o en les fletxes verdes per a mapes adjacents.


METAR-TAF: